createdAt,value
2023-03-12T00:00:17.094Z,29.879
2023-03-12T00:05:17.037Z,29.879
2023-03-12T00:10:17.063Z,29.879
2023-03-12T00:15:16.946Z,29.878
2023-03-12T00:20:16.963Z,29.882
2023-03-12T00:25:16.987Z,29.884
2023-03-12T00:30:17.108Z,29.887
2023-03-12T00:35:16.990Z,29.886
2023-03-12T00:40:17.418Z,29.886
2023-03-12T00:45:16.935Z,29.886
2023-03-12T00:50:17.093Z,29.886
2023-03-12T00:55:17.087Z,29.889
2023-03-12T01:00:17.088Z,29.889
2023-03-12T01:05:17.063Z,29.890
2023-03-12T01:10:16.994Z,29.890
2023-03-12T01:15:17.158Z,29.891
2023-03-12T01:20:17.048Z,29.888
2023-03-12T01:25:17.065Z,29.890
2023-03-12T01:30:17.083Z,29.889
2023-03-12T01:35:17.163Z,29.892
2023-03-12T01:40:17.266Z,29.890
2023-03-12T01:45:17.118Z,29.893
2023-03-12T01:50:17.150Z,29.894
2023-03-12T01:55:16.992Z,29.894
2023-03-12T02:00:17.154Z,29.896
2023-03-12T02:05:17.160Z,29.898
2023-03-12T02:10:17.419Z,29.900
2023-03-12T02:15:17.223Z,29.901
2023-03-12T02:20:17.193Z,29.901
2023-03-12T02:25:17.302Z,29.899
2023-03-12T02:30:17.216Z,29.901
2023-03-12T02:35:17.347Z,29.903
2023-03-12T02:40:17.208Z,29.903
2023-03-12T02:45:17.238Z,29.905
2023-03-12T02:50:17.237Z,29.905
2023-03-12T02:55:17.348Z,29.907
2023-03-12T03:00:17.330Z,29.908
2023-03-12T03:05:17.335Z,29.909
2023-03-12T03:10:17.281Z,29.904
2023-03-12T03:15:17.358Z,29.907
2023-03-12T03:20:17.518Z,29.904
2023-03-12T03:25:17.430Z,29.906
2023-03-12T03:30:17.448Z,29.910
2023-03-12T03:35:17.385Z,29.908
2023-03-12T03:40:17.448Z,29.908
2023-03-12T03:45:17.407Z,29.910
2023-03-12T03:50:15.435Z,29.911
2023-03-12T03:55:15.450Z,29.911
2023-03-12T04:00:15.795Z,29.914
2023-03-12T04:05:15.701Z,29.918
2023-03-12T04:10:15.405Z,29.921
2023-03-12T04:15:15.531Z,29.921
2023-03-12T04:20:15.476Z,29.921
2023-03-12T04:25:15.576Z,29.919
2023-03-12T04:30:15.588Z,29.922
2023-03-12T04:35:15.461Z,29.923
2023-03-12T04:40:15.615Z,29.925
2023-03-12T04:45:15.574Z,29.926
2023-03-12T04:50:15.569Z,29.923
2023-03-12T04:55:15.849Z,29.927
2023-03-12T05:00:16.535Z,29.925
2023-03-12T05:05:16.567Z,29.926
2023-03-12T05:10:16.637Z,29.928
2023-03-12T05:15:16.609Z,29.929
2023-03-12T05:20:16.620Z,29.933
2023-03-12T05:25:16.558Z,29.932
2023-03-12T05:30:16.624Z,29.932
2023-03-12T05:35:16.669Z,29.934
2023-03-12T05:40:16.614Z,29.936
2023-03-12T05:45:16.668Z,29.935
2023-03-12T05:50:16.651Z,29.935
2023-03-12T05:55:16.591Z,29.935
2023-03-12T06:00:16.825Z,29.938
2023-03-12T06:05:16.680Z,29.941
2023-03-12T06:10:16.860Z,29.940
2023-03-12T06:15:16.769Z,29.938
2023-03-12T06:20:16.866Z,29.939
2023-03-12T06:25:16.737Z,29.941
2023-03-12T06:30:16.751Z,29.941
2023-03-12T06:35:16.760Z,29.946
2023-03-12T06:40:16.744Z,29.942
2023-03-12T06:45:16.758Z,29.942
2023-03-12T06:50:16.872Z,29.943
2023-03-12T06:55:16.861Z,29.942
2023-03-12T07:00:16.785Z,29.943
2023-03-12T07:05:17.023Z,29.946
2023-03-12T07:10:16.984Z,29.947
2023-03-12T07:15:16.924Z,29.948
2023-03-12T07:20:16.961Z,29.948
2023-03-12T07:25:18.980Z,29.950
2023-03-12T07:30:16.974Z,29.950
2023-03-12T07:35:16.930Z,29.951
2023-03-12T07:40:16.868Z,29.952
2023-03-12T07:45:17.023Z,29.951
2023-03-12T07:50:17.141Z,29.951
2023-03-12T07:55:17.104Z,29.950
2023-03-12T08:00:17.201Z,29.951
2023-03-12T08:05:16.959Z,29.952
2023-03-12T08:10:17.078Z,29.956
2023-03-12T08:15:16.955Z,29.957
2023-03-12T08:20:16.983Z,29.957
2023-03-12T08:25:17.013Z,29.960
2023-03-12T08:30:17.043Z,29.961
2023-03-12T08:35:17.032Z,29.961
2023-03-12T08:40:16.948Z,29.959
2023-03-12T08:45:17.023Z,29.961
2023-03-12T08:50:17.024Z,29.958
2023-03-12T08:55:17.025Z,29.958
2023-03-12T09:00:17.160Z,29.961
2023-03-12T09:05:17.491Z,29.960
2023-03-12T09:10:17.222Z,29.960
2023-03-12T09:15:17.116Z,29.963
2023-03-12T09:20:17.113Z,29.963
2023-03-12T09:25:17.107Z,29.965
2023-03-12T09:30:17.102Z,29.969
2023-03-12T09:35:17.311Z,29.969
2023-03-12T09:40:17.189Z,29.972
2023-03-12T09:45:17.180Z,29.976
2023-03-12T09:50:17.354Z,29.977
2023-03-12T09:55:17.141Z,29.976
2023-03-12T10:00:17.350Z,29.974
2023-03-12T10:05:17.325Z,29.973
2023-03-12T10:10:17.344Z,29.973
2023-03-12T10:15:17.270Z,29.976
2023-03-12T10:20:17.244Z,29.977
2023-03-12T10:25:17.283Z,29.974
2023-03-12T10:30:17.244Z,29.975
2023-03-12T10:35:18.493Z,29.978
2023-03-12T10:40:17.240Z,29.980
2023-03-12T10:45:17.261Z,29.981
2023-03-12T10:50:17.325Z,29.985
2023-03-12T10:55:17.296Z,29.985
2023-03-12T11:00:17.390Z,29.988
2023-03-12T11:05:17.419Z,29.988
2023-03-12T11:10:17.384Z,29.991
2023-03-12T11:15:17.408Z,29.991
2023-03-12T11:20:17.254Z,29.992
2023-03-12T11:25:15.509Z,29.997
2023-03-12T11:30:15.486Z,30.000
2023-03-12T11:35:15.473Z,30.000
2023-03-12T11:40:15.443Z,30.003
2023-03-12T11:45:15.388Z,30.004
2023-03-12T11:50:15.430Z,30.004
2023-03-12T11:55:16.562Z,30.007
2023-03-12T12:00:15.696Z,30.004
2023-03-12T12:05:15.435Z,30.006
2023-03-12T12:10:15.609Z,30.010
2023-03-12T12:15:15.598Z,30.013
2023-03-12T12:20:15.595Z,30.017
2023-03-12T12:25:15.498Z,30.016
2023-03-12T12:30:15.636Z,30.019
2023-03-12T12:35:15.558Z,30.018
2023-03-12T12:40:15.626Z,30.021
2023-03-12T12:45:15.565Z,30.020
2023-03-12T12:50:15.655Z,30.022
2023-03-12T12:55:15.634Z,30.022
2023-03-12T13:00:15.616Z,30.023
2023-03-12T13:05:15.609Z,30.020
2023-03-12T13:10:15.762Z,30.024
2023-03-12T13:15:15.657Z,30.022
2023-03-12T13:20:15.871Z,30.024
2023-03-12T13:25:15.658Z,30.024
2023-03-12T13:30:15.660Z,30.026
2023-03-12T13:35:15.663Z,30.022
2023-03-12T13:40:15.836Z,30.024
2023-03-12T13:45:15.790Z,30.024
2023-03-12T13:50:15.685Z,30.021
2023-03-12T13:55:15.656Z,30.020
2023-03-12T14:00:15.686Z,30.018
2023-03-12T14:05:15.796Z,30.017
2023-03-12T14:10:15.786Z,30.018
2023-03-12T14:15:15.784Z,30.018
2023-03-12T14:20:15.766Z,30.019
2023-03-12T14:25:15.830Z,30.018
2023-03-12T14:30:15.849Z,30.016
2023-03-12T14:35:15.835Z,30.021
2023-03-12T14:40:15.816Z,30.024
2023-03-12T14:45:15.995Z,30.026
2023-03-12T14:50:15.819Z,30.024
2023-03-12T14:55:15.857Z,30.027
2023-03-12T15:00:15.848Z,30.027
2023-03-12T15:05:15.973Z,30.027
2023-03-12T15:10:15.873Z,30.033
2023-03-12T15:15:16.015Z,30.034
2023-03-12T15:20:15.944Z,30.037
2023-03-12T15:25:15.975Z,30.036
2023-03-12T15:30:15.983Z,30.033
2023-03-12T15:35:16.068Z,30.036
2023-03-12T15:40:16.019Z,30.034
2023-03-12T15:45:16.200Z,30.033
2023-03-12T15:50:16.020Z,30.033
2023-03-12T15:55:16.076Z,30.035
2023-03-12T16:00:16.077Z,30.036
2023-03-12T16:05:16.005Z,30.035
2023-03-12T16:10:16.012Z,30.035
2023-03-12T16:15:15.992Z,30.029
2023-03-12T16:20:16.111Z,30.028
2023-03-12T16:25:16.104Z,30.029
2023-03-12T16:30:16.003Z,30.028
2023-03-12T16:35:16.039Z,30.033
2023-03-12T16:40:23.966Z,30.036
2023-03-12T16:45:16.106Z,30.042
2023-03-12T16:50:16.105Z,30.045
2023-03-12T16:55:16.190Z,30.045
2023-03-12T17:00:16.146Z,30.052
2023-03-12T17:05:16.284Z,30.056
2023-03-12T17:10:16.248Z,30.058
2023-03-12T17:15:16.164Z,30.057
2023-03-12T17:20:16.326Z,30.059
2023-03-12T17:25:16.127Z,30.059
2023-03-12T17:30:16.153Z,30.058
2023-03-12T17:35:16.304Z,30.058
2023-03-12T17:40:16.242Z,30.058
2023-03-12T17:45:16.240Z,30.064
2023-03-12T17:50:16.394Z,30.065
2023-03-12T17:55:16.525Z,30.067
2023-03-12T18:00:16.309Z,30.069
2023-03-12T18:05:16.275Z,30.068
2023-03-12T18:10:16.278Z,30.066
2023-03-12T18:15:16.304Z,30.065
2023-03-12T18:20:23.330Z,30.064
2023-03-12T18:25:16.440Z,30.063
2023-03-12T18:30:16.344Z,30.062
2023-03-12T18:35:16.499Z,30.062
2023-03-12T18:40:16.410Z,30.070
2023-03-12T18:45:16.761Z,30.064
2023-03-12T18:50:16.404Z,30.067
2023-03-12T18:55:16.382Z,30.067
2023-03-12T19:00:16.502Z,30.067
2023-03-12T19:05:16.447Z,30.068
2023-03-12T19:10:16.394Z,30.067
2023-03-12T19:15:16.430Z,30.065
2023-03-12T19:20:16.523Z,30.067
2023-03-12T19:25:16.535Z,30.064
2023-03-12T19:30:16.492Z,30.067
2023-03-12T19:35:16.619Z,30.069
2023-03-12T19:40:16.574Z,30.065
2023-03-12T19:45:16.425Z,30.056
2023-03-12T19:50:16.628Z,30.058
2023-03-12T19:55:16.506Z,30.055
2023-03-12T20:00:16.504Z,30.055
2023-03-12T20:05:16.607Z,30.052
2023-03-12T20:10:16.545Z,30.051
2023-03-12T20:15:16.594Z,30.055
2023-03-12T20:20:16.711Z,30.056
2023-03-12T20:25:16.613Z,30.060
2023-03-12T20:30:16.554Z,30.060
2023-03-12T20:35:16.627Z,30.061
2023-03-12T20:40:16.763Z,30.060
2023-03-12T20:45:16.601Z,30.058
2023-03-12T20:50:16.667Z,30.058
2023-03-12T20:55:16.745Z,30.055
2023-03-12T21:00:16.680Z,30.052
2023-03-12T21:05:16.687Z,30.053
2023-03-12T21:10:16.680Z,30.053
2023-03-12T21:15:16.793Z,30.051
2023-03-12T21:20:16.799Z,30.051
2023-03-12T21:25:16.719Z,30.052
2023-03-12T21:30:16.776Z,30.046
2023-03-12T21:35:16.844Z,30.052
2023-03-12T21:40:16.702Z,30.047
2023-03-12T21:45:16.726Z,30.047
2023-03-12T21:50:16.802Z,30.050
2023-03-12T21:55:16.682Z,30.052
2023-03-12T22:00:16.937Z,30.054
2023-03-12T22:05:16.840Z,30.054
2023-03-12T22:10:16.918Z,30.051
2023-03-12T22:15:16.840Z,30.052
2023-03-12T22:20:16.767Z,30.048
2023-03-12T22:25:16.922Z,30.046
2023-03-12T22:30:16.831Z,30.046
2023-03-12T22:35:16.873Z,30.054
2023-03-12T22:40:16.953Z,30.056
2023-03-12T22:45:17.005Z,30.057
2023-03-12T22:50:16.871Z,30.060
2023-03-12T22:55:17.045Z,30.061
2023-03-12T23:00:17.089Z,30.063
2023-03-12T23:05:17.001Z,30.068
2023-03-12T23:10:16.950Z,30.068
2023-03-12T23:15:17.146Z,30.075
2023-03-12T23:20:16.964Z,30.075
2023-03-12T23:25:17.076Z,30.078
2023-03-12T23:30:17.127Z,30.078
2023-03-12T23:35:17.164Z,30.078
2023-03-12T23:40:17.009Z,30.080
2023-03-12T23:45:17.146Z,30.077
2023-03-12T23:50:17.024Z,30.077
2023-03-12T23:55:16.998Z,30.082
